createdAt,value
2022-10-10T00:00:14.191Z,64.69
2022-10-10T00:02:40.111Z,64.59
2022-10-10T00:05:06.027Z,64.63
2022-10-10T00:07:31.943Z,64.79
2022-10-10T00:09:57.841Z,65.09
2022-10-10T00:12:23.779Z,64.46
2022-10-10T00:14:49.719Z,64.59
2022-10-10T00:17:15.644Z,64.64
2022-10-10T00:19:41.573Z,64.89
2022-10-10T00:22:07.478Z,65.42
2022-10-10T00:24:33.397Z,65.63
2022-10-10T00:26:59.314Z,65.26
2022-10-10T00:29:25.237Z,64.84
2022-10-10T00:31:51.162Z,64.89
2022-10-10T00:34:17.094Z,64.75
2022-10-10T00:36:43.038Z,65.10
2022-10-10T00:39:08.956Z,64.93
2022-10-10T00:41:34.855Z,64.90
2022-10-10T00:44:00.774Z,65.09
2022-10-10T00:46:26.681Z,65.23
2022-10-10T00:48:52.615Z,64.71
2022-10-10T00:51:18.523Z,64.63
2022-10-10T00:53:44.441Z,64.32
2022-10-10T00:56:10.710Z,64.76
2022-10-10T00:58:36.957Z,64.86
2022-10-10T01:01:03.207Z,64.63
2022-10-10T01:03:29.493Z,64.70
2022-10-10T01:05:55.707Z,64.51
2022-10-10T01:08:21.899Z,64.71
2022-10-10T01:10:48.151Z,64.85
2022-10-10T01:13:14.372Z,64.87
2022-10-10T03:24:45.126Z,65.45
2022-10-10T03:27:11.025Z,65.72
2022-10-10T03:29:36.944Z,65.62
2022-10-10T03:34:46.919Z,65.51
2022-10-10T03:37:12.828Z,65.48
2022-10-10T03:39:38.750Z,65.17
2022-10-10T03:42:04.710Z,64.75
2022-10-10T03:44:30.656Z,64.69
2022-10-10T03:46:56.563Z,64.55
2022-10-10T03:49:22.480Z,64.65
2022-10-10T03:51:48.393Z,64.97
2022-10-10T03:54:14.342Z,65.50
2022-10-10T03:56:40.238Z,65.66
2022-10-10T03:59:06.155Z,65.79
2022-10-10T04:01:32.238Z,65.65
2022-10-10T04:03:58.185Z,65.92
2022-10-10T04:06:24.081Z,65.65
2022-10-10T04:08:49.981Z,65.34
2022-10-10T04:11:15.921Z,65.16
2022-10-10T04:13:41.815Z,65.66
2022-10-10T04:16:07.733Z,65.60
2022-10-10T04:18:33.650Z,65.56
2022-10-10T04:20:59.556Z,65.39
2022-10-10T04:23:25.489Z,65.14
2022-10-10T04:25:51.405Z,65.60
2022-10-10T04:28:17.365Z,65.30
2022-10-10T04:30:43.298Z,65.48
2022-10-10T04:33:09.272Z,65.49
2022-10-10T04:35:37.106Z,65.66
2022-10-10T04:38:03.296Z,65.60
2022-10-10T04:40:29.205Z,65.23
2022-10-10T04:42:55.120Z,65.25
2022-10-10T04:45:21.046Z,65.12
2022-10-10T04:47:46.956Z,65.24
2022-10-10T04:50:12.868Z,65.14
2022-10-10T04:52:38.809Z,65.21
2022-10-10T04:55:04.721Z,65.11
2022-10-10T04:57:30.655Z,64.85
2022-10-10T04:59:56.598Z,64.96
2022-10-10T05:02:22.538Z,65.33
2022-10-10T05:04:48.425Z,65.40
2022-10-10T05:07:14.365Z,66.06
2022-10-10T05:09:40.254Z,65.60
2022-10-10T05:12:06.207Z,65.26
2022-10-10T05:14:32.115Z,65.41
2022-10-10T05:16:58.160Z,65.09
2022-10-10T05:19:24.171Z,64.97
2022-10-10T05:21:50.120Z,64.52
2022-10-10T05:24:16.079Z,64.30
2022-10-10T05:26:43.341Z,64.24
2022-10-10T05:29:09.434Z,64.18
2022-10-10T05:31:35.367Z,64.62
2022-10-10T05:34:01.261Z,65.02
2022-10-10T05:36:27.176Z,64.77
2022-10-10T05:38:53.179Z,64.90
2022-10-10T05:41:19.075Z,64.91
2022-10-10T05:43:44.986Z,65.15
2022-10-10T05:46:10.901Z,65.11
2022-10-10T05:48:36.817Z,65.00
2022-10-10T05:51:02.747Z,64.61
2022-10-10T05:53:28.654Z,64.67
2022-10-10T05:55:54.610Z,64.76
2022-10-10T05:58:20.550Z,65.11
2022-10-10T06:00:46.482Z,64.72
2022-10-10T06:03:12.702Z,64.93
2022-10-10T06:05:38.910Z,64.56
2022-10-10T06:08:10.666Z,64.03
2022-10-10T06:10:37.989Z,64.39
2022-10-10T06:13:04.165Z,64.32
2022-10-10T06:15:30.446Z,64.86
2022-10-10T06:17:56.503Z,64.66
2022-10-10T08:13:56.204Z,55.55
2022-10-10T08:16:22.126Z,55.23
2022-10-10T08:18:48.035Z,54.10
2022-10-10T08:21:13.978Z,55.32
2022-10-10T08:23:39.899Z,54.98
2022-10-10T08:26:05.803Z,52.65
2022-10-10T08:28:31.811Z,52.99
2022-10-10T08:30:57.814Z,53.58
2022-10-10T08:33:23.710Z,52.84
2022-10-10T08:35:49.641Z,51.69
2022-10-10T08:38:15.612Z,51.86
2022-10-10T08:40:41.527Z,51.04
2022-10-10T08:43:07.444Z,51.29
2022-10-10T08:45:33.382Z,49.04
2022-10-10T08:47:59.290Z,49.45
2022-10-10T08:50:25.227Z,51.07
2022-10-10T08:52:51.507Z,48.78
2022-10-10T08:55:17.603Z,47.64
2022-10-10T08:57:43.507Z,48.92
2022-10-10T09:00:09.444Z,48.72
2022-10-10T09:02:53.210Z,49.43
2022-10-10T09:05:20.191Z,49.37
2022-10-10T09:07:46.112Z,49.28
2022-10-10T09:10:12.006Z,47.72
2022-10-10T09:12:37.949Z,47.21
2022-10-10T09:15:03.860Z,48.25
2022-10-10T09:17:29.820Z,47.93
2022-10-10T09:19:55.764Z,47.66
2022-10-10T09:22:21.702Z,47.76
2022-10-10T09:24:47.661Z,49.89
2022-10-10T09:27:13.577Z,49.36
2022-10-10T09:29:39.504Z,48.48
2022-10-10T09:32:05.392Z,47.70
2022-10-10T09:34:31.321Z,46.70
2022-10-10T09:36:59.352Z,45.47
2022-10-10T09:39:25.439Z,45.27
2022-10-10T09:41:51.353Z,44.15
2022-10-10T09:44:17.287Z,44.97
2022-10-10T09:46:43.192Z,43.64
2022-10-10T09:49:09.131Z,46.61
2022-10-10T09:51:35.119Z,43.86
2022-10-10T09:54:01.027Z,45.38
2022-10-10T09:56:26.964Z,44.50
2022-10-10T09:58:52.874Z,44.16
2022-10-10T10:01:18.837Z,42.85
2022-10-10T10:03:44.814Z,44.70
2022-10-10T10:06:10.730Z,42.78
2022-10-10T10:08:36.621Z,42.60
2022-10-10T10:11:02.699Z,42.67
2022-10-10T10:13:28.685Z,43.12
2022-10-10T10:15:54.610Z,44.22
2022-10-10T10:18:20.551Z,43.46
2022-10-10T10:20:46.954Z,41.97
2022-10-10T10:23:12.870Z,42.99
2022-10-10T10:25:38.798Z,41.70
2022-10-10T10:28:04.857Z,41.05
2022-10-10T10:30:30.914Z,41.56
2022-10-10T10:32:56.839Z,41.25
2022-10-10T10:35:22.751Z,41.17
2022-10-10T10:37:48.659Z,42.08
2022-10-10T10:40:14.670Z,43.44
2022-10-10T10:42:40.631Z,44.29
2022-10-10T10:45:06.563Z,44.49
2022-10-10T10:47:32.863Z,43.03
2022-10-10T10:49:59.136Z,44.69
2022-10-10T10:52:25.346Z,42.81
2022-10-10T10:54:51.554Z,43.79
2022-10-10T10:57:40.886Z,44.44
2022-10-10T11:00:26.353Z,43.67
2022-10-10T11:02:57.397Z,44.37
2022-10-10T11:05:35.313Z,43.69
2022-10-10T12:59:03.783Z,41.99
2022-10-10T13:01:29.760Z,41.51
2022-10-10T13:03:55.706Z,41.66
2022-10-10T13:06:21.681Z,42.51
2022-10-10T13:08:47.598Z,43.27
2022-10-10T13:11:13.497Z,45.15
2022-10-10T13:13:39.451Z,44.98
2022-10-10T13:16:05.361Z,43.16
2022-10-10T13:18:31.303Z,43.36
2022-10-10T13:20:57.250Z,44.51
2022-10-10T13:23:23.196Z,44.79
2022-10-10T13:25:49.130Z,42.56
2022-10-10T13:28:15.103Z,42.61
2022-10-10T13:30:41.056Z,41.99
2022-10-10T13:33:06.973Z,42.88
2022-10-10T13:35:32.898Z,43.61
2022-10-10T13:37:58.827Z,43.28
2022-10-10T13:40:24.773Z,42.98
2022-10-10T13:42:50.681Z,41.86
2022-10-10T13:45:16.583Z,44.04
2022-10-10T13:47:42.533Z,43.56
2022-10-10T13:50:08.439Z,44.13
2022-10-10T13:52:34.352Z,44.12
2022-10-10T13:55:00.255Z,44.88
2022-10-10T13:57:26.206Z,44.82
2022-10-10T13:59:52.106Z,43.82
2022-10-10T14:02:18.054Z,43.53
2022-10-10T14:04:43.979Z,42.54
2022-10-10T14:07:09.892Z,42.29
2022-10-10T14:09:35.811Z,43.01
2022-10-10T14:12:01.724Z,41.94
2022-10-10T14:14:27.642Z,42.60
2022-10-10T14:16:53.559Z,41.80
2022-10-10T14:19:19.473Z,41.80
2022-10-10T14:21:45.407Z,43.06
2022-10-10T14:24:11.333Z,42.57
2022-10-10T14:26:37.233Z,43.53
2022-10-10T14:29:03.153Z,43.02
2022-10-10T14:31:29.072Z,42.62
2022-10-10T14:33:55.023Z,42.58
2022-10-10T14:36:20.927Z,43.22
2022-10-10T14:38:46.852Z,42.77
2022-10-10T14:41:12.745Z,43.22
2022-10-10T14:43:41.225Z,44.38
2022-10-10T14:46:10.848Z,44.47
2022-10-10T14:48:36.751Z,44.77
2022-10-10T14:51:34.158Z,44.63
2022-10-10T14:54:12.030Z,43.75
2022-10-10T14:57:07.550Z,42.99
2022-10-10T14:59:47.600Z,43.50
2022-10-10T15:02:06.290Z,44.25
2022-10-10T15:04:32.215Z,43.63
2022-10-10T15:07:12.399Z,44.74
2022-10-10T15:09:42.924Z,45.76
2022-10-10T15:12:13.520Z,45.46
2022-10-10T15:14:39.440Z,46.19
2022-10-10T15:17:05.361Z,46.02
2022-10-10T15:19:31.334Z,45.98
2022-10-10T15:21:57.329Z,46.32
2022-10-10T15:24:23.310Z,46.25
2022-10-10T15:26:49.232Z,47.05
2022-10-10T15:29:15.155Z,47.28
2022-10-10T15:31:41.073Z,46.77
2022-10-10T15:34:07.062Z,47.70
2022-10-10T15:36:33.281Z,48.07
2022-10-10T15:38:59.483Z,47.87
2022-10-10T15:41:25.687Z,47.83
2022-10-10T15:43:51.896Z,47.49
2022-10-10T15:46:18.094Z,48.00
2022-10-10T15:48:44.258Z,48.45
2022-10-10T15:51:10.306Z,48.42
2022-10-10T17:48:22.927Z,57.38
2022-10-10T17:50:48.836Z,57.54
2022-10-10T17:53:14.753Z,57.47
2022-10-10T17:55:40.656Z,58.72
2022-10-10T17:58:06.577Z,58.78
2022-10-10T18:00:32.472Z,58.21
2022-10-10T18:02:58.412Z,58.19
2022-10-10T18:05:24.325Z,58.50
2022-10-10T18:07:50.309Z,58.79
2022-10-10T18:10:16.219Z,58.47
2022-10-10T18:12:42.487Z,58.28
2022-10-10T18:15:08.435Z,58.16
2022-10-10T18:17:34.329Z,58.17
2022-10-10T18:20:00.249Z,58.46
2022-10-10T18:22:26.205Z,59.14
2022-10-10T18:24:52.115Z,59.33
2022-10-10T18:27:18.056Z,58.85
2022-10-10T18:29:43.951Z,58.94
2022-10-10T18:32:09.876Z,59.02
2022-10-10T18:34:35.811Z,59.18
2022-10-10T18:37:01.801Z,59.55
2022-10-10T18:39:32.897Z,59.90
2022-10-10T18:41:59.213Z,59.49
2022-10-10T18:44:25.136Z,59.32
2022-10-10T18:46:51.053Z,59.11
2022-10-10T18:49:19.827Z,59.56
2022-10-10T18:51:45.766Z,60.02
2022-10-10T18:54:11.669Z,60.23
2022-10-10T18:56:37.598Z,60.08
2022-10-10T18:59:03.530Z,60.58
2022-10-10T19:01:29.474Z,60.89
2022-10-10T19:03:55.447Z,60.80
2022-10-10T19:06:21.353Z,60.72
2022-10-10T19:08:47.313Z,60.47
2022-10-10T19:11:13.217Z,60.63
2022-10-10T19:13:39.163Z,60.02
2022-10-10T19:16:05.085Z,59.74
2022-10-10T19:18:31.022Z,59.65
2022-10-10T19:20:56.983Z,60.35
2022-10-10T19:23:22.875Z,61.20
2022-10-10T19:25:48.868Z,60.93
2022-10-10T19:28:14.890Z,61.19
2022-10-10T19:30:40.864Z,60.86
2022-10-10T19:33:06.800Z,60.79
2022-10-10T19:35:32.746Z,60.86
2022-10-10T19:37:58.676Z,60.98
2022-10-10T19:40:24.577Z,60.97
2022-10-10T19:42:50.483Z,61.35
2022-10-10T19:45:16.402Z,60.74
2022-10-10T19:47:42.398Z,60.99
2022-10-10T19:50:08.316Z,60.52
2022-10-10T19:52:34.216Z,60.66
2022-10-10T19:55:00.212Z,61.11
2022-10-10T19:57:26.139Z,61.86
2022-10-10T19:59:52.074Z,61.68
2022-10-10T20:02:17.988Z,61.96
2022-10-10T20:04:43.895Z,61.67
2022-10-10T20:07:10.529Z,61.72
2022-10-10T20:09:36.502Z,61.79
2022-10-10T20:12:02.426Z,61.67
2022-10-10T20:14:28.378Z,62.00
2022-10-10T20:16:54.317Z,62.56
2022-10-10T20:19:20.229Z,62.92
2022-10-10T20:21:46.134Z,62.59
2022-10-10T20:24:12.058Z,62.85
2022-10-10T20:26:38.287Z,62.69
2022-10-10T20:29:04.526Z,62.73
2022-10-10T20:31:30.720Z,62.50
2022-10-10T20:39:17.737Z,62.25
2022-10-10T22:41:41.838Z,63.89
2022-10-10T22:44:07.775Z,64.45
2022-10-10T22:46:33.725Z,65.03
2022-10-10T22:48:59.636Z,64.79
2022-10-10T22:51:25.550Z,64.18
2022-10-10T22:53:51.467Z,65.38
2022-10-10T22:56:17.399Z,65.26
2022-10-10T22:58:43.294Z,65.55
2022-10-10T23:01:09.257Z,66.32
2022-10-10T23:03:35.210Z,66.21
2022-10-10T23:06:01.260Z,66.31
2022-10-10T23:08:27.348Z,66.50
2022-10-10T23:10:53.265Z,66.30
2022-10-10T23:13:19.210Z,67.13
2022-10-10T23:15:45.123Z,66.71
2022-10-10T23:18:11.022Z,66.72
2022-10-10T23:20:36.970Z,66.25
2022-10-10T23:23:02.876Z,65.75
2022-10-10T23:25:28.763Z,65.19
2022-10-10T23:27:54.714Z,64.81
2022-10-10T23:30:20.610Z,65.12
2022-10-10T23:32:46.554Z,65.64
2022-10-10T23:35:12.454Z,65.89
2022-10-10T23:37:38.396Z,66.46
2022-10-10T23:40:04.322Z,66.75
2022-10-10T23:42:30.227Z,66.22
2022-10-10T23:44:56.126Z,66.22
2022-10-10T23:47:22.055Z,65.26
2022-10-10T23:49:47.957Z,65.06
2022-10-10T23:52:13.870Z,65.07
2022-10-10T23:54:39.808Z,64.95
2022-10-10T23:57:05.753Z,64.97
2022-10-10T23:59:31.674Z,64.61
